sensor_id;sensor_type;location;lat;lon;timestamp;pressure;altitude;pressure_sealevel;temperature;humidity
7824;BME280;3957;48.61947800;9.05303100;2023-04-07T00:00:52;96042.56;;;3.45;100.00
7824;BME280;3957;48.61947800;9.05303100;2023-04-07T00:01:52;96051.47;;;3.44;100.00
7824;BME280;3957;48.61947800;9.05303100;2023-04-07T00:02:53;96042.00;;;3.33;100.00
7824;BME280;3957;48.61947800;9.05303100;2023-04-07T00:03:53;96047.78;;;3.28;100.00
7824;BME280;3957;48.61947800;9.05303100;2023-04-07T00:04:54;96044.81;;;3.31;100.00
7824;BME280;3957;48.61947800;9.05303100;2023-04-07T00:05:56;96052.09;;;3.29;100.00
7824;BME280;3957;48.61947800;9.05303100;2023-04-07T00:06:56;96044.66;;;3.33;100.00
7824;BME280;3957;48.61947800;9.05303100;2023-04-07T00:07:57;96056.72;;;3.27;100.00
7824;BME280;3957;48.61947800;9.05303100;2023-04-07T00:08:57;96049.25;;;3.22;100.00
7824;BME280;3957;48.61947800;9.05303100;2023-04-07T00:09:57;96054.06;;;3.27;100.00
7824;BME280;3957;48.61947800;9.05303100;2023-04-07T00:10:58;96042.16;;;3.23;100.00
7824;BME280;3957;48.61947800;9.05303100;2023-04-07T00:11:58;96047.31;;;3.25;100.00
7824;BME280;3957;48.61947800;9.05303100;2023-04-07T00:13:01;96046.13;;;3.27;100.00
7824;BME280;3957;48.61947800;9.05303100;2023-04-07T00:14:02;96044.53;;;3.34;100.00
7824;BME280;3957;48.61947800;9.05303100;2023-04-07T00:15:03;96037.09;;;3.38;100.00
7824;BME280;3957;48.61947800;9.05303100;2023-04-07T00:16:03;96032.44;;;3.32;100.00
7824;BME280;3957;48.61947800;9.05303100;2023-04-07T00:17:04;96033.94;;;3.34;100.00
7824;BME280;3957;48.61947800;9.05303100;2023-04-07T00:18:04;96034.59;;;3.36;100.00
7824;BME280;3957;48.61947800;9.05303100;2023-04-07T00:19:05;96034.09;;;3.41;100.00
7824;BME280;3957;48.61947800;9.05303100;2023-04-07T00:20:06;96032.66;;;3.38;100.00
7824;BME280;3957;48.61947800;9.05303100;2023-04-07T00:21:07;96034.09;;;3.41;100.00
7824;BME280;3957;48.61947800;9.05303100;2023-04-07T00:22:07;96032.78;;;3.37;100.00
7824;BME280;3957;48.61947800;9.05303100;2023-04-07T00:23:07;96027.34;;;3.38;100.00
7824;BME280;3957;48.61947800;9.05303100;2023-04-07T00:24:08;96032.16;;;3.43;100.00
7824;BME280;3957;48.61947800;9.05303100;2023-04-07T00:25:08;96030.47;;;3.34;100.00
7824;BME280;3957;48.61947800;9.05303100;2023-04-07T00:26:09;96030.13;;;3.29;100.00
7824;BME280;3957;48.61947800;9.05303100;2023-04-07T00:27:11;96031.59;;;3.31;100.00
7824;BME280;3957;48.61947800;9.05303100;2023-04-07T00:28:11;96022.03;;;3.30;100.00
7824;BME280;3957;48.61947800;9.05303100;2023-04-07T00:29:12;96021.53;;;3.35;100.00
7824;BME280;3957;48.61947800;9.05303100;2023-04-07T00:30:12;96024.34;;;3.33;100.00
7824;BME280;3957;48.61947800;9.05303100;2023-04-07T00:31:14;96022.84;;;3.31;100.00
7824;BME280;3957;48.61947800;9.05303100;2023-04-07T00:32:15;96019.84;;;3.26;100.00
7824;BME280;3957;48.61947800;9.05303100;2023-04-07T00:33:16;96017.22;;;3.26;100.00
7824;BME280;3957;48.61947800;9.05303100;2023-04-07T00:34:16;96022.84;;;3.31;100.00
7824;BME280;3957;48.61947800;9.05303100;2023-04-07T00:35:17;96020.38;;;3.29;100.00
7824;BME280;3957;48.61947800;9.05303100;2023-04-07T00:36:17;96019.06;;;3.33;100.00
7824;BME280;3957;48.61947800;9.05303100;2023-04-07T00:37:17;96009.78;;;3.29;100.00
7824;BME280;3957;48.61947800;9.05303100;2023-04-07T00:38:18;96010.94;;;3.27;100.00
7824;BME280;3957;48.61947800;9.05303100;2023-04-07T00:39:19;96015.56;;;3.33;100.00
7824;BME280;3957;48.61947800;9.05303100;2023-04-07T00:40:20;96011.94;;;3.34;100.00
7824;BME280;3957;48.61947800;9.05303100;2023-04-07T00:41:21;96008.97;;;3.29;100.00
7824;BME280;3957;48.61947800;9.05303100;2023-04-07T00:42:21;96010.97;;;3.35;100.00
7824;BME280;3957;48.61947800;9.05303100;2023-04-07T00:43:21;96009.63;;;3.31;100.00
7824;BME280;3957;48.61947800;9.05303100;2023-04-07T00:44:22;96010.47;;;3.39;100.00
7824;BME280;3957;48.61947800;9.05303100;2023-04-07T00:45:22;96009.31;;;3.34;100.00
7824;BME280;3957;48.61947800;9.05303100;2023-04-07T00:46:22;96006.47;;;3.27;100.00
7824;BME280;3957;48.61947800;9.05303100;2023-04-07T00:47:23;96007.94;;;3.21;100.00
7824;BME280;3957;48.61947800;9.05303100;2023-04-07T00:48:24;96002.34;;;3.25;100.00
7824;BME280;3957;48.61947800;9.05303100;2023-04-07T00:49:25;96011.75;;;3.27;100.00
7824;BME280;3957;48.61947800;9.05303100;2023-04-07T00:50:27;96007.81;;;3.31;100.00
7824;BME280;3957;48.61947800;9.05303100;2023-04-07T00:51:27;96004.69;;;3.36;100.00
7824;BME280;3957;48.61947800;9.05303100;2023-04-07T00:52:28;95994.56;;;3.31;100.00
7824;BME280;3957;48.61947800;9.05303100;2023-04-07T00:53:29;95999.22;;;3.29;100.00
7824;BME280;3957;48.61947800;9.05303100;2023-04-07T00:54:30;95996.38;;;3.22;100.00
7824;BME280;3957;48.61947800;9.05303100;2023-04-07T00:55:30;95999.34;;;3.19;100.00
7824;BME280;3957;48.61947800;9.05303100;2023-04-07T00:56:31;96001.81;;;3.21;100.00
7824;BME280;3957;48.61947800;9.05303100;2023-04-07T00:57:31;95998.50;;;3.19;100.00
7824;BME280;3957;48.61947800;9.05303100;2023-04-07T00:58:32;95989.09;;;3.16;100.00
7824;BME280;3957;48.61947800;9.05303100;2023-04-07T00:59:32;95991.75;;;3.16;100.00
7824;BME280;3957;48.61947800;9.05303100;2023-04-07T01:00:37;95997.03;;;3.16;100.00
7824;BME280;3957;48.61947800;9.05303100;2023-04-07T01:01:46;95994.72;;;3.21;100.00
7824;BME280;3957;48.61947800;9.05303100;2023-04-07T01:03:10;95992.06;;;3.21;100.00
7824;BME280;3957;48.61947800;9.05303100;2023-04-07T01:04:31;95996.69;;;3.19;100.00
7824;BME280;3957;48.61947800;9.05303100;2023-04-07T01:05:45;95987.28;;;3.17;100.00
7824;BME280;3957;48.61947800;9.05303100;2023-04-07T01:06:49;95983.84;;;3.25;100.00
7824;BME280;3957;48.61947800;9.05303100;2023-04-07T01:08:00;95990.28;;;3.22;100.00
7824;BME280;3957;48.61947800;9.05303100;2023-04-07T01:09:13;95984.97;;;3.22;100.00
7824;BME280;3957;48.61947800;9.05303100;2023-04-07T01:10:20;95976.03;;;3.23;100.00
7824;BME280;3957;48.61947800;9.05303100;2023-04-07T01:13:31;95979.69;;;3.22;100.00
7824;BME280;3957;48.61947800;9.05303100;2023-04-07T01:14:57;95975.38;;;3.21;100.00
7824;BME280;3957;48.61947800;9.05303100;2023-04-07T01:16:15;95977.06;;;3.22;100.00
7824;BME280;3957;48.61947800;9.05303100;2023-04-07T01:17:23;95971.94;;;3.29;100.00
7824;BME280;3957;48.61947800;9.05303100;2023-04-07T01:18:31;95972.59;;;3.31;100.00
7824;BME280;3957;48.61947800;9.05303100;2023-04-07T01:19:40;95979.38;;;3.33;100.00
7824;BME280;3957;48.61947800;9.05303100;2023-04-07T01:20:45;95977.06;;;3.30;100.00
7824;BME280;3957;48.61947800;9.05303100;2023-04-07T01:21:51;95974.28;;;3.32;100.00
7824;BME280;3957;48.61947800;9.05303100;2023-04-07T01:22:55;95972.59;;;3.31;100.00
7824;BME280;3957;48.61947800;9.05303100;2023-04-07T01:26:41;95971.59;;;3.23;100.00
7824;BME280;3957;48.61947800;9.05303100;2023-04-07T01:28:56;95973.56;;;3.21;100.00
7824;BME280;3957;48.61947800;9.05303100;2023-04-07T01:30:07;95969.13;;;3.22;100.00
7824;BME280;3957;48.61947800;9.05303100;2023-04-07T01:31:11;95965.47;;;3.23;100.00
7824;BME280;3957;48.61947800;9.05303100;2023-04-07T01:32:13;95965.78;;;3.20;100.00
7824;BME280;3957;48.61947800;9.05303100;2023-04-07T01:33:15;95961.03;;;3.23;100.00
7824;BME280;3957;48.61947800;9.05303100;2023-04-07T01:34:17;95957.41;;;3.25;100.00
7824;BME280;3957;48.61947800;9.05303100;2023-04-07T01:35:18;95971.28;;;3.27;100.00
7824;BME280;3957;48.61947800;9.05303100;2023-04-07T01:36:20;95963.66;;;3.23;100.00
7824;BME280;3957;48.61947800;9.05303100;2023-04-07T01:37:21;95961.19;;;3.22;100.00
7824;BME280;3957;48.61947800;9.05303100;2023-04-07T01:38:23;95956.53;;;3.16;100.00
7824;BME280;3957;48.61947800;9.05303100;2023-04-07T01:39:26;95954.84;;;3.15;100.00
7824;BME280;3957;48.61947800;9.05303100;2023-04-07T01:40:27;95967.25;;;3.14;100.00
7824;BME280;3957;48.61947800;9.05303100;2023-04-07T01:41:29;95966.44;;;3.14;100.00
7824;BME280;3957;48.61947800;9.05303100;2023-04-07T01:42:31;95962.66;;;3.16;100.00
7824;BME280;3957;48.61947800;9.05303100;2023-04-07T01:43:32;95960.84;;;3.17;100.00
7824;BME280;3957;48.61947800;9.05303100;2023-04-07T01:44:33;95963.50;;;3.25;100.00
7824;BME280;3957;48.61947800;9.05303100;2023-04-07T01:45:34;95959.88;;;3.26;100.00
7824;BME280;3957;48.61947800;9.05303100;2023-04-07T01:46:35;95962.69;;;3.25;100.00
7824;BME280;3957;48.61947800;9.05303100;2023-04-07T01:47:36;95955.94;;;3.38;100.00
7824;BME280;3957;48.61947800;9.05303100;2023-04-07T01:48:38;95955.91;;;3.30;100.00
7824;BME280;3957;48.61947800;9.05303100;2023-04-07T01:49:39;95961.88;;;3.40;100.00
7824;BME280;3957;48.61947800;9.05303100;2023-04-07T01:50:40;95954.44;;;3.36;100.00
7824;BME280;3957;48.61947800;9.05303100;2023-04-07T01:51:41;95955.44;;;3.35;100.00
7824;BME280;3957;48.61947800;9.05303100;2023-04-07T01:52:42;95953.28;;;3.38;100.00
7824;BME280;3957;48.61947800;9.05303100;2023-04-07T01:53:47;95948.81;;;3.39;100.00
7824;BME280;3957;48.61947800;9.05303100;2023-04-07T01:54:48;95944.84;;;3.35;100.00
7824;BME280;3957;48.61947800;9.05303100;2023-04-07T01:55:49;95947.84;;;3.40;100.00
7824;BME280;3957;48.61947800;9.05303100;2023-04-07T01:56:51;95947.16;;;3.38;100.00
7824;BME280;3957;48.61947800;9.05303100;2023-04-07T01:57:54;95947.31;;;3.36;100.00
7824;BME280;3957;48.61947800;9.05303100;2023-04-07T01:58:55;95948.81;;;3.39;100.00
7824;BME280;3957;48.61947800;9.05303100;2023-04-07T01:59:58;95946.69;;;3.43;100.00
7824;BME280;3957;48.61947800;9.05303100;2023-04-07T02:01:00;95947.84;;;3.40;100.00
7824;BME280;3957;48.61947800;9.05303100;2023-04-07T02:02:00;95946.19;;;3.39;100.00
7824;BME280;3957;48.61947800;9.05303100;2023-04-07T02:03:07;95945.34;;;3.38;100.00
7824;BME280;3957;48.61947800;9.05303100;2023-04-07T02:04:14;95948.00;;;3.38;100.00
7824;BME280;3957;48.61947800;9.05303100;2023-04-07T02:05:19;95949.47;;;3.41;100.00
7824;BME280;3957;48.61947800;9.05303100;2023-04-07T02:06:28;95945.84;;;3.42;100.00
7824;BME280;3957;48.61947800;9.05303100;2023-04-07T02:07:39;95955.09;;;3.38;100.00
7824;BME280;3957;48.61947800;9.05303100;2023-04-07T02:08:45;95949.63;;;3.39;100.00
7824;BME280;3957;48.61947800;9.05303100;2023-04-07T02:09:48;95950.66;;;3.38;100.00
7824;BME280;3957;48.61947800;9.05303100;2023-04-07T02:10:51;95947.00;;;3.39;100.00
7824;BME280;3957;48.61947800;9.05303100;2023-04-07T02:11:54;95953.13;;;3.40;100.00
7824;BME280;3957;48.61947800;9.05303100;2023-04-07T02:12:57;95941.69;;;3.39;100.00
7824;BME280;3957;48.61947800;9.05303100;2023-04-07T02:14:00;95947.31;;;3.36;100.00
7824;BME280;3957;48.61947800;9.05303100;2023-04-07T02:15:07;95947.00;;;3.39;100.00
7824;BME280;3957;48.61947800;9.05303100;2023-04-07T02:16:08;95940.72;;;3.40;100.00
7824;BME280;3957;48.61947800;9.05303100;2023-04-07T02:17:10;95937.75;;;3.44;100.00
7824;BME280;3957;48.61947800;9.05303100;2023-04-07T02:18:13;95938.44;;;3.54;100.00
7824;BME280;3957;48.61947800;9.05303100;2023-04-07T02:19:14;95936.59;;;3.54;100.00
7824;BME280;3957;48.61947800;9.05303100;2023-04-07T02:20:16;95939.75;;;3.50;100.00
7824;BME280;3957;48.61947800;9.05303100;2023-04-07T02:21:17;95934.28;;;3.51;100.00
7824;BME280;3957;48.61947800;9.05303100;2023-04-07T02:22:19;95936.94;;;3.51;100.00
7824;BME280;3957;48.61947800;9.05303100;2023-04-07T02:23:20;95939.25;;;3.46;100.00
7824;BME280;3957;48.61947800;9.05303100;2023-04-07T02:24:20;95936.59;;;3.46;100.00
7824;BME280;3957;48.61947800;9.05303100;2023-04-07T02:25:26;95936.09;;;3.43;100.00
7824;BME280;3957;48.61947800;9.05303100;2023-04-07T02:26:32;95941.22;;;3.44;100.00
7824;BME280;3957;48.61947800;9.05303100;2023-04-07T02:27:33;95934.28;;;3.51;100.00
7824;BME280;3957;48.61947800;9.05303100;2023-04-07T02:28:33;95927.34;;;3.50;100.00
7824;BME280;3957;48.61947800;9.05303100;2023-04-07T02:29:33;95927.69;;;3.47;100.00
7824;BME280;3957;48.61947800;9.05303100;2023-04-07T02:30:34;95929.97;;;3.42;100.00
7824;BME280;3957;48.61947800;9.05303100;2023-04-07T02:31:35;95930.13;;;3.40;100.00
7824;BME280;3957;48.61947800;9.05303100;2023-04-07T02:32:35;95927.66;;;3.39;100.00
7824;BME280;3957;48.61947800;9.05303100;2023-04-07T02:33:36;95928.31;;;3.41;100.00
7824;BME280;3957;48.61947800;9.05303100;2023-04-07T02:34:36;95923.53;;;3.45;100.00
7824;BME280;3957;48.61947800;9.05303100;2023-04-07T02:35:37;95927.16;;;3.44;100.00
7824;BME280;3957;48.61947800;9.05303100;2023-04-07T02:36:37;95929.63;;;3.45;100.00
7824;BME280;3957;48.61947800;9.05303100;2023-04-07T02:37:40;95926.50;;;3.42;100.00
7824;BME280;3957;48.61947800;9.05303100;2023-04-07T02:38:40;95925.00;;;3.39;100.00
7824;BME280;3957;48.61947800;9.05303100;2023-04-07T02:39:41;95914.94;;;3.34;100.00
7824;BME280;3957;48.61947800;9.05303100;2023-04-07T02:40:41;95913.91;;;3.35;100.00
7824;BME280;3957;48.61947800;9.05303100;2023-04-07T02:41:42;95917.59;;;3.43;100.00
7824;BME280;3957;48.61947800;9.05303100;2023-04-07T02:42:42;95917.59;;;3.51;100.00
7824;BME280;3957;48.61947800;9.05303100;2023-04-07T02:43:43;95915.09;;;3.49;100.00
7824;BME280;3957;48.61947800;9.05303100;2023-04-07T02:44:43;95913.28;;;3.33;100.00
7824;BME280;3957;48.61947800;9.05303100;2023-04-07T02:45:43;95915.25;;;3.39;100.00
7824;BME280;3957;48.61947800;9.05303100;2023-04-07T02:46:44;95908.81;;;3.42;100.00
7824;BME280;3957;48.61947800;9.05303100;2023-04-07T02:47:44;95917.91;;;3.39;100.00
7824;BME280;3957;48.61947800;9.05303100;2023-04-07T02:48:44;95912.94;;;3.36;100.00
7824;BME280;3957;48.61947800;9.05303100;2023-04-07T02:49:45;95910.97;;;3.38;100.00
7824;BME280;3957;48.61947800;9.05303100;2023-04-07T02:50:45;95913.59;;;3.30;100.00
7824;BME280;3957;48.61947800;9.05303100;2023-04-07T02:51:46;95904.03;;;3.37;100.00
7824;BME280;3957;48.61947800;9.05303100;2023-04-07T02:52:46;95904.66;;;3.39;100.00
7824;BME280;3957;48.61947800;9.05303100;2023-04-07T02:53:48;95904.03;;;3.37;100.00
7824;BME280;3957;48.61947800;9.05303100;2023-04-07T02:54:49;95899.56;;;3.38;100.00
7824;BME280;3957;48.61947800;9.05303100;2023-04-07T02:55:53;95898.72;;;3.29;100.00
7824;BME280;3957;48.61947800;9.05303100;2023-04-07T02:56:53;95891.41;;;3.23;100.00
7824;BME280;3957;48.61947800;9.05303100;2023-04-07T02:57:54;95896.88;;;3.30;100.00
7824;BME280;3957;48.61947800;9.05303100;2023-04-07T02:59:14;95893.78;;;3.34;100.00
7824;BME280;3957;48.61947800;9.05303100;2023-04-07T03:00:18;95892.28;;;3.32;100.00
7824;BME280;3957;48.61947800;9.05303100;2023-04-07T03:01:30;95901.84;;;3.33;100.00
7824;BME280;3957;48.61947800;9.05303100;2023-04-07T03:02:30;95894.75;;;3.33;100.00
7824;BME280;3957;48.61947800;9.05303100;2023-04-07T03:03:31;95894.78;;;3.42;100.00
7824;BME280;3957;48.61947800;9.05303100;2023-04-07T03:04:43;95895.41;;;3.35;100.00
7824;BME280;3957;48.61947800;9.05303100;2023-04-07T03:05:43;95901.72;;;3.34;100.00
7824;BME280;3957;48.61947800;9.05303100;2023-04-07T03:06:45;95894.75;;;3.33;100.00
7824;BME280;3957;48.61947800;9.05303100;2023-04-07T03:07:48;95899.19;;;3.33;100.00
7824;BME280;3957;48.61947800;9.05303100;2023-04-07T03:08:49;95898.56;;;3.31;100.00
7824;BME280;3957;48.61947800;9.05303100;2023-04-07T03:09:49;95893.78;;;3.34;100.00
7824;BME280;3957;48.61947800;9.05303100;2023-04-07T03:10:51;95894.28;;;3.46;100.00
7824;BME280;3957;48.61947800;9.05303100;2023-04-07T03:11:58;95902.53;;;3.43;100.00
7824;BME280;3957;48.61947800;9.05303100;2023-04-07T03:13:02;95891.78;;;3.36;100.00
7824;BME280;3957;48.61947800;9.05303100;2023-04-07T03:14:03;95899.22;;;3.41;100.00
7824;BME280;3957;48.61947800;9.05303100;2023-04-07T03:15:05;95891.97;;;3.43;100.00
7824;BME280;3957;48.61947800;9.05303100;2023-04-07T03:16:07;95891.28;;;3.41;100.00
7824;BME280;3957;48.61947800;9.05303100;2023-04-07T03:17:17;95879.72;;;3.42;100.00
7824;BME280;3957;48.61947800;9.05303100;2023-04-07T03:18:18;95883.22;;;3.59;100.00
7824;BME280;3957;48.61947800;9.05303100;2023-04-07T03:19:19;95876.25;;;3.50;100.00
7824;BME280;3957;48.61947800;9.05303100;2023-04-07T03:20:22;95874.09;;;3.53;100.00
7824;BME280;3957;48.61947800;9.05303100;2023-04-07T03:21:22;95879.38;;;3.45;100.00
7824;BME280;3957;48.61947800;9.05303100;2023-04-07T03:22:23;95881.53;;;3.42;100.00
7824;BME280;3957;48.61947800;9.05303100;2023-04-07T03:23:26;95874.44;;;3.42;100.00
7824;BME280;3957;48.61947800;9.05303100;2023-04-07T03:24:30;95873.78;;;3.40;100.00
7824;BME280;3957;48.61947800;9.05303100;2023-04-07T03:25:30;95867.81;;;3.38;100.00
7824;BME280;3957;48.61947800;9.05303100;2023-04-07T03:26:32;95877.75;;;3.36;100.00
7824;BME280;3957;48.61947800;9.05303100;2023-04-07T03:27:33;95869.13;;;3.50;100.00
7824;BME280;3957;48.61947800;9.05303100;2023-04-07T03:28:35;95867.47;;;3.49;100.00
7824;BME280;3957;48.61947800;9.05303100;2023-04-07T03:29:35;95871.63;;;3.44;100.00
7824;BME280;3957;48.61947800;9.05303100;2023-04-07T03:30:38;95873.09;;;3.38;100.00
7824;BME280;3957;48.61947800;9.05303100;2023-04-07T03:31:40;95872.44;;;3.36;100.00
7824;BME280;3957;48.61947800;9.05303100;2023-04-07T03:32:40;95872.75;;;3.33;100.00
7824;BME280;3957;48.61947800;9.05303100;2023-04-07T03:33:41;95872.75;;;3.33;100.00
7824;BME280;3957;48.61947800;9.05303100;2023-04-07T03:34:41;95868.66;;;3.30;100.00
7824;BME280;3957;48.61947800;9.05303100;2023-04-07T03:35:42;95877.22;;;3.32;100.00
7824;BME280;3957;48.61947800;9.05303100;2023-04-07T03:36:44;95871.13;;;3.32;100.00
7824;BME280;3957;48.61947800;9.05303100;2023-04-07T03:37:45;95879.22;;;3.30;100.00
7824;BME280;3957;48.61947800;9.05303100;2023-04-07T03:38:49;95871.63;;;3.44;100.00
7824;BME280;3957;48.61947800;9.05303100;2023-04-07T03:39:51;95878.06;;;3.41;100.00
7824;BME280;3957;48.61947800;9.05303100;2023-04-07T03:41:00;95875.56;;;3.39;100.00
7824;BME280;3957;48.61947800;9.05303100;2023-04-07T03:42:01;95872.44;;;3.36;100.00
7824;BME280;3957;48.61947800;9.05303100;2023-04-07T03:43:05;95876.09;;;3.35;100.00
7824;BME280;3957;48.61947800;9.05303100;2023-04-07T03:44:11;95875.25;;;3.34;100.00
7824;BME280;3957;48.61947800;9.05303100;2023-04-07T03:45:12;95879.88;;;3.32;100.00
7824;BME280;3957;48.61947800;9.05303100;2023-04-07T03:46:19;95874.09;;;3.29;100.00
7824;BME280;3957;48.61947800;9.05303100;2023-04-07T03:47:20;95873.59;;;3.33;100.00
7824;BME280;3957;48.61947800;9.05303100;2023-04-07T03:48:27;95866.16;;;3.37;100.00
7824;BME280;3957;48.61947800;9.05303100;2023-04-07T03:49:36;95877.56;;;3.37;100.00
7824;BME280;3957;48.61947800;9.05303100;2023-04-07T03:50:38;95871.94;;;3.32;100.00
7824;BME280;3957;48.61947800;9.05303100;2023-04-07T03:51:46;95873.59;;;3.33;100.00
7824;BME280;3957;48.61947800;9.05303100;2023-04-07T03:52:49;95873.78;;;3.32;100.00
7824;BME280;3957;48.61947800;9.05303100;2023-04-07T03:53:58;95864.81;;;3.33;100.00
7824;BME280;3957;48.61947800;9.05303100;2023-04-07T03:55:08;95867.63;;;3.31;100.00
7824;BME280;3957;48.61947800;9.05303100;2023-04-07T03:56:08;95867.00;;;3.46;100.00
7824;BME280;3957;48.61947800;9.05303100;2023-04-07T03:57:18;95868.66;;;3.47;100.00
7824;BME280;3957;48.61947800;9.05303100;2023-04-07T03:58:21;95861.72;;;3.46;100.00
7824;BME280;3957;48.61947800;9.05303100;2023-04-07T03:59:22;95863.84;;;3.42;100.00
7824;BME280;3957;48.61947800;9.05303100;2023-04-07T04:00:35;95862.88;;;3.43;100.00
7824;BME280;3957;48.61947800;9.05303100;2023-04-07T04:01:45;95858.06;;;3.38;100.00
7824;BME280;3957;48.61947800;9.05303100;2023-04-07T04:02:48;95855.25;;;3.40;100.00
7824;BME280;3957;48.61947800;9.05303100;2023-04-07T04:03:53;95854.59;;;3.38;100.00
7824;BME280;3957;48.61947800;9.05303100;2023-04-07T04:04:58;95855.91;;;3.42;100.00
7824;BME280;3957;48.61947800;9.05303100;2023-04-07T04:05:58;95855.44;;;3.38;100.00
7824;BME280;3957;48.61947800;9.05303100;2023-04-07T04:07:02;95858.06;;;3.38;100.00
7824;BME280;3957;48.61947800;9.05303100;2023-04-07T04:08:16;95854.75;;;3.36;100.00
7824;BME280;3957;48.61947800;9.05303100;2023-04-07T04:09:17;95848.31;;;3.47;100.00
7824;BME280;3957;48.61947800;9.05303100;2023-04-07T04:10:21;95860.69;;;3.71;100.00
7824;BME280;3957;48.61947800;9.05303100;2023-04-07T04:11:25;95855.72;;;3.85;100.00
7824;BME280;3957;48.61947800;9.05303100;2023-04-07T04:12:31;95850.28;;;3.70;100.00
7824;BME280;3957;48.61947800;9.05303100;2023-04-07T04:13:38;95846.00;;;3.61;100.00
7824;BME280;3957;48.61947800;9.05303100;2023-04-07T04:14:40;95851.13;;;3.54;100.00
7824;BME280;3957;48.61947800;9.05303100;2023-04-07T04:15:42;95844.50;;;3.50;100.00
7824;BME280;3957;48.61947800;9.05303100;2023-04-07T04:16:47;95849.31;;;3.46;100.00
7824;BME280;3957;48.61947800;9.05303100;2023-04-07T04:18:01;95846.00;;;3.44;100.00
7824;BME280;3957;48.61947800;9.05303100;2023-04-07T04:19:03;95844.69;;;3.40;100.00
7824;BME280;3957;48.61947800;9.05303100;2023-04-07T04:20:05;95846.31;;;3.41;100.00
7824;BME280;3957;48.61947800;9.05303100;2023-04-07T04:21:14;95848.47;;;3.46;100.00
7824;BME280;3957;48.61947800;9.05303100;2023-04-07T04:22:17;95847.50;;;3.47;100.00
7824;BME280;3957;48.61947800;9.05303100;2023-04-07T04:23:24;95844.81;;;3.63;100.00
7824;BME280;3957;48.61947800;9.05303100;2023-04-07T04:24:27;95848.47;;;3.54;100.00
7824;BME280;3957;48.61947800;9.05303100;2023-04-07T04:25:33;95846.66;;;3.54;100.00
7824;BME280;3957;48.61947800;9.05303100;2023-04-07T04:26:35;95839.69;;;3.53;100.00
7824;BME280;3957;48.61947800;9.05303100;2023-04-07T04:27:43;95847.47;;;3.63;100.00
7824;BME280;3957;48.61947800;9.05303100;2023-04-07T04:28:51;95850.63;;;3.58;100.00
7824;BME280;3957;48.61947800;9.05303100;2023-04-07T04:29:53;95851.31;;;3.52;100.00
7824;BME280;3957;48.61947800;9.05303100;2023-04-07T04:31:04;95846.31;;;3.57;100.00
7824;BME280;3957;48.61947800;9.05303100;2023-04-07T04:32:09;95846.66;;;3.54;100.00
7824;BME280;3957;48.61947800;9.05303100;2023-04-07T04:33:10;95848.97;;;3.57;100.00
7824;BME280;3957;48.61947800;9.05303100;2023-04-07T04:34:17;95848.78;;;3.67;100.00
7824;BME280;3957;48.61947800;9.05303100;2023-04-07T04:35:18;95853.94;;;3.85;100.00
7824;BME280;3957;48.61947800;9.05303100;2023-04-07T04:36:34;95851.75;;;3.89;100.00
7824;BME280;3957;48.61947800;9.05303100;2023-04-07T04:37:38;95851.41;;;4.00;100.00
7824;BME280;3957;48.61947800;9.05303100;2023-04-07T04:38:43;95850.25;;;3.95;100.00
7824;BME280;3957;48.61947800;9.05303100;2023-04-07T04:39:49;95847.94;;;4.00;100.00
7824;BME280;3957;48.61947800;9.05303100;2023-04-07T04:40:54;95851.38;;;4.17;100.00
7824;BME280;3957;48.61947800;9.05303100;2023-04-07T04:42:00;95850.91;;;4.05;100.00
7824;BME280;3957;48.61947800;9.05303100;2023-04-07T04:43:06;95847.31;;;3.89;100.00
7824;BME280;3957;48.61947800;9.05303100;2023-04-07T04:44:10;95845.66;;;3.80;100.00
7824;BME280;3957;48.61947800;9.05303100;2023-04-07T04:45:13;95848.94;;;3.74;100.00
7824;BME280;3957;48.61947800;9.05303100;2023-04-07T04:46:19;95846.81;;;3.69;100.00
7824;BME280;3957;48.61947800;9.05303100;2023-04-07T04:47:19;95851.13;;;3.70;100.00
7824;BME280;3957;48.61947800;9.05303100;2023-04-07T04:48:20;95848.31;;;3.64;100.00
7824;BME280;3957;48.61947800;9.05303100;2023-04-07T04:49:21;95845.50;;;3.57;100.00
7824;BME280;3957;48.61947800;9.05303100;2023-04-07T04:50:24;95845.00;;;3.53;100.00
7824;BME280;3957;48.61947800;9.05303100;2023-04-07T04:51:26;95843.84;;;3.48;100.00
7824;BME280;3957;48.61947800;9.05303100;2023-04-07T04:52:33;95848.66;;;3.52;100.00
7824;BME280;3957;48.61947800;9.05303100;2023-04-07T04:53:33;95841.88;;;3.50;100.00
7824;BME280;3957;48.61947800;9.05303100;2023-04-07T04:54:36;95848.47;;;3.46;100.00
7824;BME280;3957;48.61947800;9.05303100;2023-04-07T04:55:36;95847.16;;;3.42;100.00
7824;BME280;3957;48.61947800;9.05303100;2023-04-07T04:56:38;95843.03;;;3.39;100.00
7824;BME280;3957;48.61947800;9.05303100;2023-04-07T04:57:39;95843.34;;;3.36;100.00
7824;BME280;3957;48.61947800;9.05303100;2023-04-07T04:58:43;95847.97;;;3.34;100.00
7824;BME280;3957;48.61947800;9.05303100;2023-04-07T04:59:53;95847.97;;;3.34;100.00
7824;BME280;3957;48.61947800;9.05303100;2023-04-07T05:00:53;95846.31;;;3.33;100.00
7824;BME280;3957;48.61947800;9.05303100;2023-04-07T05:02:02;95841.03;;;3.33;100.00
7824;BME280;3957;48.61947800;9.05303100;2023-04-07T05:03:02;95844.50;;;3.33;100.00
7824;BME280;3957;48.61947800;9.05303100;2023-04-07T05:04:06;95846.31;;;3.33;100.00
7824;BME280;3957;48.61947800;9.05303100;2023-04-07T05:05:08;95842.84;;;3.32;100.00
7824;BME280;3957;48.61947800;9.05303100;2023-04-07T05:06:08;95840.38;;;3.31;100.00
7824;BME280;3957;48.61947800;9.05303100;2023-04-07T05:07:09;95841.34;;;3.30;100.00
7824;BME280;3957;48.61947800;9.05303100;2023-04-07T05:08:10;95843.84;;;3.31;100.00